Terminal Aerodrome Forecast
Issued by NWS

Home | Current Version | Previous Version | Graphics & Text | Print | Product List | Glossary On
Versions: 1 2 3 4 5 6 7 8 9 10 11 12 13 14 15 16
000
FTUS43 KGRB 010500
TAFCWA
TAF
KCWA 010520Z 0106/0206 VRB03KT P6SM SCT080
     FM010800 VRB02KT 3SM BR SCT250
     FM011400 26004KT P6SM SCT080
      TEMPO 0118/0122 -SHRA BKN080
      AMD LTD TO CLD VIS AND WIND TIL 011200=

USA.gov is the U.S. government's official web portal to all federal, state and local government web resources and services.